sensor_id;sensor_type;location;lat;lon;timestamp;P1;durP1;ratioP1;P2;durP2;ratioP2
40847;SDS011;26570;50.962;5.340;2023-03-20T01:03:13;15.30;;;6.30;;
40847;SDS011;26570;50.962;5.340;2023-03-20T01:06:07;12.87;;;6.33;;
40847;SDS011;26570;50.962;5.340;2023-03-20T01:08:54;17.50;;;8.90;;
40847;SDS011;26570;50.962;5.340;2023-03-20T01:11:40;22.80;;;11.13;;
40847;SDS011;26570;50.962;5.340;2023-03-20T01:14:52;29.77;;;13.50;;
40847;SDS011;26570;50.962;5.340;2023-03-20T01:17:40;34.30;;;15.03;;
40847;SDS011;26570;50.962;5.340;2023-03-20T01:20:26;30.73;;;14.30;;
40847;SDS011;26570;50.962;5.340;2023-03-20T01:23:14;29.77;;;14.80;;
40847;SDS011;26570;50.962;5.340;2023-03-20T01:26:00;33.07;;;17.03;;
40847;SDS011;26570;50.962;5.340;2023-03-20T01:28:45;36.47;;;16.53;;
40847;SDS011;26570;50.962;5.340;2023-03-20T01:31:31;34.43;;;14.97;;
40847;SDS011;26570;50.962;5.340;2023-03-20T01:34:39;33.33;;;15.50;;
40847;SDS011;26570;50.962;5.340;2023-03-20T01:37:47;27.10;;;14.77;;
40847;SDS011;26570;50.962;5.340;2023-03-20T01:40:39;34.90;;;15.43;;
40847;SDS011;26570;50.962;5.340;2023-03-20T01:43:33;39.67;;;16.40;;
40847;SDS011;26570;50.962;5.340;2023-03-20T01:46:42;29.63;;;13.90;;
40847;SDS011;26570;50.962;5.340;2023-03-20T01:52:13;29.83;;;14.27;;
40847;SDS011;26570;50.962;5.340;2023-03-20T01:54:58;26.60;;;12.73;;
40847;SDS011;26570;50.962;5.340;2023-03-20T01:57:44;27.57;;;12.67;;
40847;SDS011;26570;50.962;5.340;2023-03-20T02:00:30;25.83;;;12.97;;
40847;SDS011;26570;50.962;5.340;2023-03-20T02:03:16;22.67;;;12.10;;
40847;SDS011;26570;50.962;5.340;2023-03-20T02:06:03;25.27;;;12.13;;
40847;SDS011;26570;50.962;5.340;2023-03-20T02:08:54;26.53;;;11.00;;
40847;SDS011;26570;50.962;5.340;2023-03-20T02:11:39;20.60;;;10.00;;
40847;SDS011;26570;50.962;5.340;2023-03-20T02:14:49;20.90;;;10.57;;
40847;SDS011;26570;50.962;5.340;2023-03-20T02:17:36;21.90;;;10.30;;
40847;SDS011;26570;50.962;5.340;2023-03-20T02:23:50;20.53;;;9.73;;
40847;SDS011;26570;50.962;5.340;2023-03-20T02:34:03;25.63;;;11.40;;
40847;SDS011;26570;50.962;5.340;2023-03-20T02:43:40;20.53;;;10.87;;
40847;SDS011;26570;50.962;5.340;2023-03-20T02:52:32;21.08;;;10.43;;
40847;SDS011;26570;50.962;5.340;2023-03-20T02:55:41;21.90;;;11.37;;
40847;SDS011;26570;50.962;5.340;2023-03-20T02:59:11;28.60;;;13.00;;
40847;SDS011;26570;50.962;5.340;2023-03-20T03:02:35;27.90;;;13.83;;
40847;SDS011;26570;50.962;5.340;2023-03-20T03:05:36;27.53;;;10.93;;
40847;SDS011;26570;50.962;5.340;2023-03-20T03:08:30;19.10;;;9.20;;
40847;SDS011;26570;50.962;5.340;2023-03-20T03:11:21;22.83;;;9.47;;
40847;SDS011;26570;50.962;5.340;2023-03-20T03:17:18;18.63;;;9.60;;
40847;SDS011;26570;50.962;5.340;2023-03-20T03:20:31;22.93;;;9.73;;
40847;SDS011;26570;50.962;5.340;2023-03-20T03:23:28;15.90;;;9.33;;
40847;SDS011;26570;50.962;5.340;2023-03-20T03:26:19;17.47;;;8.47;;
40847;SDS011;26570;50.962;5.340;2023-03-20T03:29:10;16.17;;;9.30;;
40847;SDS011;26570;50.962;5.340;2023-03-20T03:32:57;22.67;;;8.63;;
40847;SDS011;26570;50.962;5.340;2023-03-20T03:36:16;14.97;;;8.43;;
40847;SDS011;26570;50.962;5.340;2023-03-20T03:42:32;20.27;;;9.67;;
40847;SDS011;26570;50.962;5.340;2023-03-20T03:46:00;20.67;;;9.17;;
40847;SDS011;26570;50.962;5.340;2023-03-20T03:49:41;16.47;;;8.23;;
40847;SDS011;26570;50.962;5.340;2023-03-20T03:52:31;19.20;;;8.47;;
40847;SDS011;26570;50.962;5.340;2023-03-20T03:55:19;19.50;;;9.13;;
40847;SDS011;26570;50.962;5.340;2023-03-20T03:58:09;21.17;;;8.67;;
40847;SDS011;26570;50.962;5.340;2023-03-20T04:00:59;19.50;;;9.00;;
40847;SDS011;26570;50.962;5.340;2023-03-20T04:03:48;17.53;;;8.53;;
40847;SDS011;26570;50.962;5.340;2023-03-20T04:06:36;18.13;;;10.23;;
40847;SDS011;26570;50.962;5.340;2023-03-20T04:09:22;22.93;;;10.67;;
40847;SDS011;26570;50.962;5.340;2023-03-20T04:12:29;21.80;;;11.43;;
40847;SDS011;26570;50.962;5.340;2023-03-20T04:15:17;22.93;;;10.43;;
40847;SDS011;26570;50.962;5.340;2023-03-20T04:18:27;19.80;;;10.53;;
40847;SDS011;26570;50.962;5.340;2023-03-20T04:21:34;21.63;;;11.43;;
40847;SDS011;26570;50.962;5.340;2023-03-20T04:24:20;21.40;;;10.37;;
40847;SDS011;26570;50.962;5.340;2023-03-20T04:27:05;22.80;;;11.87;;
40847;SDS011;26570;50.962;5.340;2023-03-20T04:29:51;22.63;;;11.20;;
40847;SDS011;26570;50.962;5.340;2023-03-20T04:32:59;23.67;;;12.63;;
40847;SDS011;26570;50.962;5.340;2023-03-20T04:35:44;25.33;;;11.87;;
40847;SDS011;26570;50.962;5.340;2023-03-20T04:38:30;26.07;;;12.97;;
40847;SDS011;26570;50.962;5.340;2023-03-20T04:41:16;26.37;;;13.63;;
40847;SDS011;26570;50.962;5.340;2023-03-20T04:44:04;25.07;;;14.13;;
40847;SDS011;26570;50.962;5.340;2023-03-20T04:46:50;28.43;;;13.73;;
40847;SDS011;26570;50.962;5.340;2023-03-20T04:49:35;31.07;;;13.73;;
40847;SDS011;26570;50.962;5.340;2023-03-20T04:52:43;29.53;;;15.07;;
40847;SDS011;26570;50.962;5.340;2023-03-20T04:55:29;32.03;;;15.50;;
40847;SDS011;26570;50.962;5.340;2023-03-20T04:58:14;31.40;;;14.60;;
40847;SDS011;26570;50.962;5.340;2023-03-20T05:01:00;32.77;;;16.07;;
40847;SDS011;26570;50.962;5.340;2023-03-20T05:03:45;30.50;;;14.87;;
40847;SDS011;26570;50.962;5.340;2023-03-20T05:06:31;33.70;;;15.07;;
40847;SDS011;26570;50.962;5.340;2023-03-20T05:09:39;40.17;;;16.27;;
40847;SDS011;26570;50.962;5.340;2023-03-20T05:12:46;41.50;;;17.83;;
40847;SDS011;26570;50.962;5.340;2023-03-20T05:15:32;36.83;;;16.90;;
40847;SDS011;26570;50.962;5.340;2023-03-20T05:18:17;40.20;;;16.30;;
40847;SDS011;26570;50.962;5.340;2023-03-20T05:21:04;37.07;;;17.17;;
40847;SDS011;26570;50.962;5.340;2023-03-20T05:23:50;40.00;;;17.80;;
40847;SDS011;26570;50.962;5.340;2023-03-20T05:26:36;33.93;;;16.07;;
40847;SDS011;26570;50.962;5.340;2023-03-20T05:29:44;39.13;;;17.60;;
40847;SDS011;26570;50.962;5.340;2023-03-20T05:32:52;39.27;;;17.57;;
40847;SDS011;26570;50.962;5.340;2023-03-20T05:35:38;46.50;;;17.60;;
40847;SDS011;26570;50.962;5.340;2023-03-20T05:38:24;38.83;;;17.17;;
40847;SDS011;26570;50.962;5.340;2023-03-20T05:41:10;40.30;;;17.27;;
40847;SDS011;26570;50.962;5.340;2023-03-20T05:43:56;43.27;;;16.93;;
40847;SDS011;26570;50.962;5.340;2023-03-20T05:46:42;35.13;;;17.03;;
40847;SDS011;26570;50.962;5.340;2023-03-20T05:49:27;38.30;;;16.57;;
40847;SDS011;26570;50.962;5.340;2023-03-20T05:52:13;39.83;;;17.37;;
40847;SDS011;26570;50.962;5.340;2023-03-20T05:54:59;37.20;;;16.40;;
40847;SDS011;26570;50.962;5.340;2023-03-20T05:57:44;40.97;;;16.57;;
40847;SDS011;26570;50.962;5.340;2023-03-20T06:00:29;38.80;;;16.93;;
40847;SDS011;26570;50.962;5.340;2023-03-20T06:03:16;32.63;;;16.07;;
40847;SDS011;26570;50.962;5.340;2023-03-20T06:06:02;42.57;;;17.57;;
40847;SDS011;26570;50.962;5.340;2023-03-20T06:08:47;34.27;;;15.73;;
40847;SDS011;26570;50.962;5.340;2023-03-20T06:11:33;39.10;;;16.03;;
40847;SDS011;26570;50.962;5.340;2023-03-20T06:14:19;35.80;;;15.83;;
40847;SDS011;26570;50.962;5.340;2023-03-20T06:17:05;38.10;;;15.13;;
40847;SDS011;26570;50.962;5.340;2023-03-20T06:19:50;35.37;;;14.23;;
40847;SDS011;26570;50.962;5.340;2023-03-20T06:22:36;38.10;;;14.93;;
40847;SDS011;26570;50.962;5.340;2023-03-20T06:25:21;36.83;;;14.90;;
40847;SDS011;26570;50.962;5.340;2023-03-20T06:28:07;40.53;;;14.20;;
40847;SDS011;26570;50.962;5.340;2023-03-20T06:31:15;37.10;;;13.80;;
40847;SDS011;26570;50.962;5.340;2023-03-20T06:34:00;34.37;;;12.97;;
40847;SDS011;26570;50.962;5.340;2023-03-20T06:36:46;33.23;;;13.23;;
40847;SDS011;26570;50.962;5.340;2023-03-20T06:39:31;30.47;;;12.33;;
40847;SDS011;26570;50.962;5.340;2023-03-20T06:42:17;27.83;;;12.70;;
40847;SDS011;26570;50.962;5.340;2023-03-20T06:45:06;33.67;;;12.40;;
40847;SDS011;26570;50.962;5.340;2023-03-20T06:47:52;28.67;;;11.67;;
40847;SDS011;26570;50.962;5.340;2023-03-20T06:50:38;32.00;;;12.13;;
40847;SDS011;26570;50.962;5.340;2023-03-20T06:53:24;31.43;;;12.27;;
40847;SDS011;26570;50.962;5.340;2023-03-20T06:56:10;24.20;;;10.80;;
40847;SDS011;26570;50.962;5.340;2023-03-20T06:58:55;25.80;;;11.83;;
40847;SDS011;26570;50.962;5.340;2023-03-20T07:01:42;29.60;;;11.27;;
40847;SDS011;26570;50.962;5.340;2023-03-20T07:04:50;25.67;;;11.60;;
40847;SDS011;26570;50.962;5.340;2023-03-20T07:07:36;27.20;;;10.53;;
40847;SDS011;26570;50.962;5.340;2023-03-20T07:10:22;25.67;;;10.43;;
40847;SDS011;26570;50.962;5.340;2023-03-20T07:13:07;23.20;;;9.60;;
40847;SDS011;26570;50.962;5.340;2023-03-20T07:15:53;25.83;;;9.70;;
40847;SDS011;26570;50.962;5.340;2023-03-20T07:18:39;22.10;;;9.10;;
40847;SDS011;26570;50.962;5.340;2023-03-20T07:21:24;23.83;;;7.97;;
40847;SDS011;26570;50.962;5.340;2023-03-20T07:24:10;25.63;;;8.40;;
40847;SDS011;26570;50.962;5.340;2023-03-20T07:26:55;20.17;;;7.17;;
40847;SDS011;26570;50.962;5.340;2023-03-20T07:29:41;28.80;;;7.90;;
40847;SDS011;26570;50.962;5.340;2023-03-20T07:32:49;18.83;;;5.87;;
40847;SDS011;26570;50.962;5.340;2023-03-20T07:35:34;20.13;;;5.37;;
40847;SDS011;26570;50.962;5.340;2023-03-20T07:38:42;11.60;;;4.10;;
40847;SDS011;26570;50.962;5.340;2023-03-20T07:41:49;16.27;;;4.03;;
40847;SDS011;26570;50.962;5.340;2023-03-20T07:44:34;13.93;;;3.70;;
40847;SDS011;26570;50.962;5.340;2023-03-20T07:47:20;12.27;;;3.63;;
40847;SDS011;26570;50.962;5.340;2023-03-20T07:50:28;12.87;;;4.00;;
40847;SDS011;26570;50.962;5.340;2023-03-20T07:53:13;12.03;;;3.50;;
40847;SDS011;26570;50.962;5.340;2023-03-20T07:55:59;14.40;;;3.07;;
40847;SDS011;26570;50.962;5.340;2023-03-20T07:58:44;15.10;;;3.43;;
40847;SDS011;26570;50.962;5.340;2023-03-20T08:01:30;12.27;;;3.43;;
40847;SDS011;26570;50.962;5.340;2023-03-20T08:04:16;11.50;;;3.60;;
40847;SDS011;26570;50.962;5.340;2023-03-20T08:07:04;17.93;;;3.87;;
40847;SDS011;26570;50.962;5.340;2023-03-20T08:09:50;12.73;;;2.77;;
40847;SDS011;26570;50.962;5.340;2023-03-20T08:12:35;17.37;;;3.40;;
40847;SDS011;26570;50.962;5.340;2023-03-20T08:15:22;16.10;;;2.87;;
40847;SDS011;26570;50.962;5.340;2023-03-20T08:18:07;9.43;;;2.50;;
40847;SDS011;26570;50.962;5.340;2023-03-20T08:20:52;14.00;;;3.57;;
40847;SDS011;26570;50.962;5.340;2023-03-20T08:23:59;14.70;;;2.80;;
40847;SDS011;26570;50.962;5.340;2023-03-20T08:26:44;10.73;;;2.60;;
40847;SDS011;26570;50.962;5.340;2023-03-20T08:29:29;12.33;;;3.03;;
40847;SDS011;26570;50.962;5.340;2023-03-20T08:32:14;13.20;;;2.77;;
40847;SDS011;26570;50.962;5.340;2023-03-20T08:34:59;10.47;;;2.20;;
40847;SDS011;26570;50.962;5.340;2023-03-20T08:37:44;10.83;;;1.87;;
40847;SDS011;26570;50.962;5.340;2023-03-20T08:40:29;15.57;;;2.30;;
40847;SDS011;26570;50.962;5.340;2023-03-20T08:43:14;14.97;;;2.60;;
40847;SDS011;26570;50.962;5.340;2023-03-20T08:46:00;14.77;;;2.23;;
40847;SDS011;26570;50.962;5.340;2023-03-20T08:48:44;10.60;;;1.83;;
40847;SDS011;26570;50.962;5.340;2023-03-20T08:51:29;8.53;;;2.07;;
40847;SDS011;26570;50.962;5.340;2023-03-20T08:54:37;15.17;;;2.20;;
40847;SDS011;26570;50.962;5.340;2023-03-20T08:57:24;15.37;;;2.67;;
40847;SDS011;26570;50.962;5.340;2023-03-20T09:00:10;14.13;;;1.83;;
40847;SDS011;26570;50.962;5.340;2023-03-20T09:03:01;12.60;;;1.50;;
40847;SDS011;26570;50.962;5.340;2023-03-20T09:05:46;14.27;;;1.83;;
40847;SDS011;26570;50.962;5.340;2023-03-20T09:08:32;11.03;;;2.27;;
40847;SDS011;26570;50.962;5.340;2023-03-20T09:11:18;9.97;;;1.20;;
40847;SDS011;26570;50.962;5.340;2023-03-20T09:14:25;13.50;;;2.40;;
40847;SDS011;26570;50.962;5.340;2023-03-20T09:17:14;16.30;;;1.40;;
40847;SDS011;26570;50.962;5.340;2023-03-20T09:19:59;10.87;;;2.00;;
40847;SDS011;26570;50.962;5.340;2023-03-20T09:22:44;19.90;;;1.97;;
40847;SDS011;26570;50.962;5.340;2023-03-20T09:25:29;11.80;;;1.27;;
40847;SDS011;26570;50.962;5.340;2023-03-20T09:28:14;10.70;;;1.10;;
40847;SDS011;26570;50.962;5.340;2023-03-20T09:30:59;8.60;;;1.27;;
40847;SDS011;26570;50.962;5.340;2023-03-20T09:34:07;9.47;;;1.17;;
40847;SDS011;26570;50.962;5.340;2023-03-20T09:36:52;10.90;;;1.77;;
40847;SDS011;26570;50.962;5.340;2023-03-20T09:39:37;7.67;;;1.50;;
40847;SDS011;26570;50.962;5.340;2023-03-20T09:45:41;11.93;;;2.35;;
40847;SDS011;26570;50.962;5.340;2023-03-20T09:52:37;18.63;;;1.70;;
40847;SDS011;26570;50.962;5.340;2023-03-20T09:55:18;10.37;;;1.30;;
40847;SDS011;26570;50.962;5.340;2023-03-20T09:58:30;12.40;;;1.77;;
40847;SDS011;26570;50.962;5.340;2023-03-20T10:01:18;12.97;;;2.40;;
40847;SDS011;26570;50.962;5.340;2023-03-20T10:04:07;12.03;;;1.30;;
40847;SDS011;26570;50.962;5.340;2023-03-20T10:06:54;13.67;;;2.57;;
40847;SDS011;26570;50.962;5.340;2023-03-20T10:09:39;7.10;;;1.50;;
40847;SDS011;26570;50.962;5.340;2023-03-20T10:18:36;7.73;;;1.60;;
40847;SDS011;26570;50.962;5.340;2023-03-20T10:21:31;11.97;;;2.30;;
40847;SDS011;26570;50.962;5.340;2023-03-20T10:24:28;8.93;;;1.70;;
40847;SDS011;26570;50.962;5.340;2023-03-20T10:27:28;15.73;;;2.37;;
40847;SDS011;26570;50.962;5.340;2023-03-20T10:30:39;11.60;;;2.27;;
40847;SDS011;26570;50.962;5.340;2023-03-20T10:36:45;14.93;;;1.97;;
40847;SDS011;26570;50.962;5.340;2023-03-20T10:42:54;10.87;;;2.17;;
40847;SDS011;26570;50.962;5.340;2023-03-20T10:45:51;15.07;;;2.73;;
40847;SDS011;26570;50.962;5.340;2023-03-20T10:52:20;9.93;;;1.93;;
40847;SDS011;26570;50.962;5.340;2023-03-20T10:55:10;7.03;;;1.20;;
40847;SDS011;26570;50.962;5.340;2023-03-20T10:58:13;14.70;;;3.17;;
40847;SDS011;26570;50.962;5.340;2023-03-20T11:01:06;17.52;;;2.33;;
40847;SDS011;26570;50.962;5.340;2023-03-20T11:04:14;12.63;;;1.33;;
40847;SDS011;26570;50.962;5.340;2023-03-20T11:07:02;18.13;;;1.60;;
40847;SDS011;26570;50.962;5.340;2023-03-20T11:12:48;16.50;;;1.77;;
40847;SDS011;26570;50.962;5.340;2023-03-20T11:15:35;18.23;;;2.03;;
40847;SDS011;26570;50.962;5.340;2023-03-20T11:18:24;14.03;;;1.53;;
40847;SDS011;26570;50.962;5.340;2023-03-20T11:21:14;12.60;;;1.30;;
40847;SDS011;26570;50.962;5.340;2023-03-20T11:27:26;12.35;;;1.60;;
40847;SDS011;26570;50.962;5.340;2023-03-20T11:30:38;14.90;;;2.30;;
40847;SDS011;26570;50.962;5.340;2023-03-20T11:33:51;13.30;;;1.70;;
40847;SDS011;26570;50.962;5.340;2023-03-20T11:36:46;12.67;;;1.43;;
40847;SDS011;26570;50.962;5.340;2023-03-20T11:39:42;11.23;;;1.10;;
40847;SDS011;26570;50.962;5.340;2023-03-20T11:42:50;9.30;;;1.40;;
40847;SDS011;26570;50.962;5.340;2023-03-20T11:45:46;7.80;;;1.05;;
40847;SDS011;26570;50.962;5.340;2023-03-20T11:48:37;16.03;;;1.00;;
40847;SDS011;26570;50.962;5.340;2023-03-20T11:51:28;13.10;;;1.23;;
40847;SDS011;26570;50.962;5.340;2023-03-20T11:54:14;8.53;;;1.03;;
40847;SDS011;26570;50.962;5.340;2023-03-20T11:57:03;9.53;;;1.30;;
40847;SDS011;26570;50.962;5.340;2023-03-20T11:59:49;11.03;;;1.67;;
40847;SDS011;26570;50.962;5.340;2023-03-20T12:02:34;10.33;;;1.00;;
40847;SDS011;26570;50.962;5.340;2023-03-20T12:08:21;14.87;;;1.10;;
40847;SDS011;26570;50.962;5.340;2023-03-20T12:11:36;8.07;;;0.80;;
40847;SDS011;26570;50.962;5.340;2023-03-20T12:18:01;9.83;;;0.70;;
40847;SDS011;26570;50.962;5.340;2023-03-20T12:21:11;8.60;;;1.00;;
40847;SDS011;26570;50.962;5.340;2023-03-20T12:27:28;7.30;;;0.80;;
40847;SDS011;26570;50.962;5.340;2023-03-20T12:30:22;9.07;;;1.13;;
40847;SDS011;26570;50.962;5.340;2023-03-20T12:33:32;13.50;;;0.90;;
40847;SDS011;26570;50.962;5.340;2023-03-20T12:36:45;12.63;;;0.80;;
40847;SDS011;26570;50.962;5.340;2023-03-20T12:39:33;14.30;;;0.80;;
40847;SDS011;26570;50.962;5.340;2023-03-20T12:45:38;8.17;;;0.87;;
40847;SDS011;26570;50.962;5.340;2023-03-20T12:51:45;8.30;;;0.80;;
40847;SDS011;26570;50.962;5.340;2023-03-20T12:54:53;12.33;;;0.70;;
40847;SDS011;26570;50.962;5.340;2023-03-20T12:58:26;9.17;;;0.83;;
40847;SDS011;26570;50.962;5.340;2023-03-20T13:14:23;13.87;;;0.80;;
40847;SDS011;26570;50.962;5.340;2023-03-20T13:23:45;12.37;;;0.80;;
40847;SDS011;26570;50.962;5.340;2023-03-20T13:27:05;10.77;;;0.80;;
40847;SDS011;26570;50.962;5.340;2023-03-20T13:30:18;8.90;;;0.60;;
40847;SDS011;26570;50.962;5.340;2023-03-20T13:33:36;12.83;;;0.80;;
40847;SDS011;26570;50.962;5.340;2023-03-20T13:36:51;7.70;;;0.95;;
40847;SDS011;26570;50.962;5.340;2023-03-20T13:40:02;8.77;;;0.80;;
40847;SDS011;26570;50.962;5.340;2023-03-20T13:46:23;14.60;;;1.00;;
40847;SDS011;26570;50.962;5.340;2023-03-20T13:52:24;6.60;;;0.70;;
40847;SDS011;26570;50.962;5.340;2023-03-20T13:55:17;11.73;;;1.10;;
40847;SDS011;26570;50.962;5.340;2023-03-20T14:04:52;10.87;;;0.80;;
40847;SDS011;26570;50.962;5.340;2023-03-20T14:07:46;8.20;;;1.10;;
40847;SDS011;26570;50.962;5.340;2023-03-20T14:10:34;6.70;;;0.93;;
40847;SDS011;26570;50.962;5.340;2023-03-20T14:13:20;10.77;;;1.00;;
40847;SDS011;26570;50.962;5.340;2023-03-20T14:16:07;7.37;;;0.70;;
40847;SDS011;26570;50.962;5.340;2023-03-20T14:19:18;9.40;;;0.90;;
40847;SDS011;26570;50.962;5.340;2023-03-20T14:22:13;9.00;;;0.80;;
40847;SDS011;26570;50.962;5.340;2023-03-20T14:25:05;14.40;;;1.13;;
40847;SDS011;26570;50.962;5.340;2023-03-20T14:34:17;10.23;;;1.10;;
40847;SDS011;26570;50.962;5.340;2023-03-20T14:37:23;13.70;;;1.30;;
40847;SDS011;26570;50.962;5.340;2023-03-20T14:43:16;5.37;;;0.73;;
40847;SDS011;26570;50.962;5.340;2023-03-20T14:49:23;7.23;;;0.87;;
40847;SDS011;26570;50.962;5.340;2023-03-20T14:59:09;15.57;;;1.30;;
40847;SDS011;26570;50.962;5.340;2023-03-20T15:01:58;14.87;;;1.90;;
40847;SDS011;26570;50.962;5.340;2023-03-20T15:04:44;11.50;;;1.43;;
40847;SDS011;26570;50.962;5.340;2023-03-20T15:07:32;10.13;;;1.20;;
40847;SDS011;26570;50.962;5.340;2023-03-20T15:10:20;7.03;;;1.20;;
40847;SDS011;26570;50.962;5.340;2023-03-20T15:13:10;10.67;;;1.20;;
40847;SDS011;26570;50.962;5.340;2023-03-20T15:16:02;10.33;;;1.40;;
40847;SDS011;26570;50.962;5.340;2023-03-20T15:21:39;8.30;;;1.00;;
40847;SDS011;26570;50.962;5.340;2023-03-20T15:24:26;7.63;;;1.10;;
40847;SDS011;26570;50.962;5.340;2023-03-20T15:27:13;11.27;;;1.40;;
40847;SDS011;26570;50.962;5.340;2023-03-20T15:29:59;10.70;;;1.27;;
40847;SDS011;26570;50.962;5.340;2023-03-20T15:32:47;13.43;;;1.40;;
40847;SDS011;26570;50.962;5.340;2023-03-20T15:35:33;11.77;;;1.30;;
40847;SDS011;26570;50.962;5.340;2023-03-20T15:38:31;12.63;;;1.87;;
40847;SDS011;26570;50.962;5.340;2023-03-20T15:41:29;15.73;;;1.73;;
40847;SDS011;26570;50.962;5.340;2023-03-20T15:50:10;10.23;;;1.70;;
40847;SDS011;26570;50.962;5.340;2023-03-20T15:52:56;8.73;;;1.80;;
40847;SDS011;26570;50.962;5.340;2023-03-20T15:55:48;7.07;;;1.10;;
40847;SDS011;26570;50.962;5.340;2023-03-20T15:58:37;13.63;;;2.10;;
40847;SDS011;26570;50.962;5.340;2023-03-20T16:01:24;8.50;;;1.60;;
40847;SDS011;26570;50.962;5.340;2023-03-20T16:04:14;9.80;;;1.97;;
40847;SDS011;26570;50.962;5.340;2023-03-20T16:07:02;13.33;;;2.40;;
40847;SDS011;26570;50.962;5.340;2023-03-20T16:09:48;12.80;;;2.20;;
40847;SDS011;26570;50.962;5.340;2023-03-20T16:12:34;18.40;;;2.10;;
40847;SDS011;26570;50.962;5.340;2023-03-20T16:15:21;12.00;;;1.87;;
40847;SDS011;26570;50.962;5.340;2023-03-20T16:18:13;18.30;;;2.27;;
40847;SDS011;26570;50.962;5.340;2023-03-20T16:21:00;12.50;;;2.07;;
40847;SDS011;26570;50.962;5.340;2023-03-20T16:23:51;14.83;;;3.00;;
40847;SDS011;26570;50.962;5.340;2023-03-20T16:26:40;10.30;;;2.03;;
40847;SDS011;26570;50.962;5.340;2023-03-20T16:29:27;13.37;;;2.53;;
40847;SDS011;26570;50.962;5.340;2023-03-20T16:35:28;17.03;;;2.63;;
40847;SDS011;26570;50.962;5.340;2023-03-20T16:38:26;17.10;;;2.30;;
40847;SDS011;26570;50.962;5.340;2023-03-20T16:41:37;12.13;;;2.20;;
40847;SDS011;26570;50.962;5.340;2023-03-20T16:44:27;20.97;;;3.00;;
40847;SDS011;26570;50.962;5.340;2023-03-20T16:47:19;14.53;;;3.13;;
40847;SDS011;26570;50.962;5.340;2023-03-20T16:50:11;17.37;;;2.30;;
40847;SDS011;26570;50.962;5.340;2023-03-20T16:53:11;17.10;;;2.53;;
40847;SDS011;26570;50.962;5.340;2023-03-20T16:56:03;12.98;;;2.58;;
40847;SDS011;26570;50.962;5.340;2023-03-20T16:58:53;15.60;;;2.83;;
40847;SDS011;26570;50.962;5.340;2023-03-20T17:01:39;17.37;;;3.77;;
40847;SDS011;26570;50.962;5.340;2023-03-20T17:04:34;18.90;;;3.10;;
40847;SDS011;26570;50.962;5.340;2023-03-20T17:07:22;21.83;;;3.83;;
40847;SDS011;26570;50.962;5.340;2023-03-20T17:10:32;20.80;;;4.27;;
40847;SDS011;26570;50.962;5.340;2023-03-20T17:13:22;17.60;;;3.17;;
40847;SDS011;26570;50.962;5.340;2023-03-20T17:16:09;20.73;;;4.40;;
40847;SDS011;26570;50.962;5.340;2023-03-20T17:19:06;18.95;;;7.70;;
40847;SDS011;26570;50.962;5.340;2023-03-20T17:22:04;10.73;;;4.60;;
40847;SDS011;26570;50.962;5.340;2023-03-20T17:25:02;21.80;;;4.67;;
40847;SDS011;26570;50.962;5.340;2023-03-20T17:27:50;21.53;;;3.97;;
40847;SDS011;26570;50.962;5.340;2023-03-20T17:30:35;23.77;;;4.60;;
40847;SDS011;26570;50.962;5.340;2023-03-20T17:33:21;19.40;;;3.33;;
40847;SDS011;26570;50.962;5.340;2023-03-20T17:39:08;17.93;;;3.77;;
40847;SDS011;26570;50.962;5.340;2023-03-20T17:42:25;16.73;;;3.83;;
40847;SDS011;26570;50.962;5.340;2023-03-20T17:45:15;12.10;;;3.43;;
40847;SDS011;26570;50.962;5.340;2023-03-20T17:48:01;19.93;;;3.37;;
40847;SDS011;26570;50.962;5.340;2023-03-20T17:50:48;14.87;;;3.77;;
40847;SDS011;26570;50.962;5.340;2023-03-20T17:53:56;17.07;;;3.57;;
40847;SDS011;26570;50.962;5.340;2023-03-20T17:56:42;14.53;;;3.17;;
40847;SDS011;26570;50.962;5.340;2023-03-20T17:59:28;15.57;;;3.97;;
40847;SDS011;26570;50.962;5.340;2023-03-20T18:02:15;20.43;;;3.70;;
40847;SDS011;26570;50.962;5.340;2023-03-20T18:05:24;18.40;;;4.87;;
40847;SDS011;26570;50.962;5.340;2023-03-20T18:08:16;18.40;;;4.60;;
40847;SDS011;26570;50.962;5.340;2023-03-20T18:11:07;22.60;;;8.10;;
40847;SDS011;26570;50.962;5.340;2023-03-20T18:14:15;16.37;;;4.73;;
40847;SDS011;26570;50.962;5.340;2023-03-20T18:17:02;20.00;;;5.10;;
40847;SDS011;26570;50.962;5.340;2023-03-20T18:19:48;16.60;;;4.30;;
40847;SDS011;26570;50.962;5.340;2023-03-20T18:22:34;19.90;;;4.73;;
40847;SDS011;26570;50.962;5.340;2023-03-20T18:25:20;18.67;;;4.87;;
40847;SDS011;26570;50.962;5.340;2023-03-20T18:28:06;11.83;;;3.57;;
40847;SDS011;26570;50.962;5.340;2023-03-20T18:31:24;16.53;;;3.70;;
40847;SDS011;26570;50.962;5.340;2023-03-20T18:34:09;17.77;;;4.37;;
40847;SDS011;26570;50.962;5.340;2023-03-20T18:36:55;20.73;;;3.83;;
40847;SDS011;26570;50.962;5.340;2023-03-20T18:39:40;17.50;;;4.53;;
40847;SDS011;26570;50.962;5.340;2023-03-20T18:42:26;19.70;;;4.63;;
40847;SDS011;26570;50.962;5.340;2023-03-20T18:45:13;17.80;;;3.97;;
40847;SDS011;26570;50.962;5.340;2023-03-20T18:47:59;18.10;;;4.27;;
40847;SDS011;26570;50.962;5.340;2023-03-20T18:50:48;12.53;;;3.90;;
40847;SDS011;26570;50.962;5.340;2023-03-20T18:53:46;17.73;;;4.20;;
40847;SDS011;26570;50.962;5.340;2023-03-20T18:56:39;23.83;;;4.45;;
40847;SDS011;26570;50.962;5.340;2023-03-20T18:59:26;17.60;;;3.80;;
40847;SDS011;26570;50.962;5.340;2023-03-20T19:02:12;17.23;;;3.90;;
40847;SDS011;26570;50.962;5.340;2023-03-20T19:04:59;19.13;;;3.87;;
40847;SDS011;26570;50.962;5.340;2023-03-20T19:07:54;15.67;;;4.17;;
40847;SDS011;26570;50.962;5.340;2023-03-20T19:11:05;12.20;;;3.50;;
40847;SDS011;26570;50.962;5.340;2023-03-20T19:13:58;19.35;;;4.72;;
40847;SDS011;26570;50.962;5.340;2023-03-20T19:16:44;15.40;;;4.10;;
40847;SDS011;26570;50.962;5.340;2023-03-20T19:19:30;18.27;;;4.00;;
40847;SDS011;26570;50.962;5.340;2023-03-20T19:22:16;20.00;;;4.83;;
40847;SDS011;26570;50.962;5.340;2023-03-20T19:25:02;12.23;;;3.90;;
40847;SDS011;26570;50.962;5.340;2023-03-20T19:27:50;19.07;;;4.40;;
40847;SDS011;26570;50.962;5.340;2023-03-20T19:30:36;15.77;;;3.97;;
40847;SDS011;26570;50.962;5.340;2023-03-20T19:33:23;16.00;;;3.63;;
40847;SDS011;26570;50.962;5.340;2023-03-20T19:36:25;14.50;;;3.63;;
40847;SDS011;26570;50.962;5.340;2023-03-20T19:39:41;16.60;;;4.77;;
40847;SDS011;26570;50.962;5.340;2023-03-20T19:42:53;21.60;;;7.20;;
40847;SDS011;26570;50.962;5.340;2023-03-20T19:45:42;21.13;;;6.80;;
40847;SDS011;26570;50.962;5.340;2023-03-20T19:48:29;25.43;;;8.67;;
40847;SDS011;26570;50.962;5.340;2023-03-20T19:51:20;18.73;;;6.77;;
40847;SDS011;26570;50.962;5.340;2023-03-20T19:54:08;26.00;;;7.30;;
40847;SDS011;26570;50.962;5.340;2023-03-20T19:56:57;21.83;;;8.17;;
40847;SDS011;26570;50.962;5.340;2023-03-20T19:59:43;23.97;;;7.73;;
40847;SDS011;26570;50.962;5.340;2023-03-20T20:02:29;27.63;;;8.17;;
40847;SDS011;26570;50.962;5.340;2023-03-20T20:05:20;20.53;;;6.30;;
40847;SDS011;26570;50.962;5.340;2023-03-20T20:08:10;19.40;;;6.10;;
40847;SDS011;26570;50.962;5.340;2023-03-20T20:11:19;21.00;;;5.83;;
40847;SDS011;26570;50.962;5.340;2023-03-20T20:14:05;18.70;;;5.07;;
40847;SDS011;26570;50.962;5.340;2023-03-20T20:16:51;24.53;;;6.00;;
40847;SDS011;26570;50.962;5.340;2023-03-20T20:19:38;19.47;;;5.63;;
40847;SDS011;26570;50.962;5.340;2023-03-20T20:22:47;20.53;;;6.73;;
40847;SDS011;26570;50.962;5.340;2023-03-20T20:25:33;20.70;;;6.27;;
40847;SDS011;26570;50.962;5.340;2023-03-20T20:28:23;20.67;;;6.27;;
40847;SDS011;26570;50.962;5.340;2023-03-20T20:31:36;22.50;;;7.07;;